Rockton Airport

CPT3 · 安大略, 加拿大

罗盘
风向 的 风向 270° Rockton Airport 3/21
风向 到 风: 12 kt, 阵阵 20 kt, 4 beaufort

6 kt

10 kt
改变
0 1.000 2.000 3.000 4.000 5.000
SCT 3.200 ft
OVC 4.100 ft
SPECI CYKF 040212Z AUTO 27012G20KT 9SM SCT032 OVC041 M01/M07 A3019 RMK SLP240

METAR Rockton Airport - CPT3

Rockton Airport是,加拿大中的小机场。 该机场有3条跑道: 3/21, 10/28 和 18/36. 该领域的国际民航组织标志是CPT3.

这份报告是针对2022年12月3日 21:12, 当地时间在Waterloo Airport进行的。

机场观察

风向为270°,速度为12 kt。 已测得20 kt的阵风。

可见度为9 mi。

有疏云,零星散落的云朵在3.200 ft的高度 和 乌云密布在4.100 ft的高度。 破损或更高的上限为4.100 ft。

温度为-1 °C,阵风为-9 °C。 露点为-7 °C,相对湿度为64%。 海平面上的气压为30,19 inHg (QNH)。

白天

今天,太阳从07:36升起,在16:45降落。 这适用于Rockton Airport,世界夏令时可能有所不同。 当地时间与世界标准时间之间的时差为-5 小时。 当前,没有夏令时有效。

公司介绍

我们没有关于这个机场的公司信息。

体会

到Vliegles.nl去找飞行课程,跳伞和其他飞行体验。 浏览页面,了解Rockton Airport附近所有可用的活动。 你也可以使用搜索功能来寻找你所在地附近的特定飞行课程、跳伞或其他飞行体验。

跑道

Id 标题 侧风 逆风 侧风 %
3/21 030°-210° 10-17 kt 6-10 kt 87 %
10/28 100°-280° 2-3 kt 12-20 kt 17 %
18/36 180°-360° 12-20 kt 100 %

逆风成分最大的方向会被突出显示,并用于横风计算。 这并不一定意味着这个方向在使用。

乌云

3.200 ft SCT 疏云,零星散落的云朵
4.100 ft OVC 乌云密布

温度 & 天气

温度 -1 °C
露点 -7 °C
相对湿度 64%
风寒 -9 °C
Kp-index 2 (0-9)

评论

SLP240海平面压力为30,24 inHg (30,24 inHg)

白天

日出
07:37 (9:50)
中午
12:11
日落
16:45

小工具

你想在你的网站上有一个关于Rockton Airport的当前航空天气(METAR)的小部件吗?

显示HTML代码

我们和第三方通过cookies跟踪您在我们网站上的互联网行为。如果你继续,我们认为你同意我们的饼干政策